createdAt,value
2018-11-12T00:00:01.107Z,16
2018-11-12T00:01:01.101Z,19
2018-11-12T00:02:01.128Z,17
2018-11-12T00:04:01.133Z,18
2018-11-12T00:05:01.095Z,17
2018-11-12T00:07:01.097Z,18
2018-11-12T00:09:01.133Z,16
2018-11-12T00:10:01.100Z,18
2018-11-12T00:13:01.085Z,19
2018-11-12T00:15:06.096Z,18
2018-11-12T00:17:01.082Z,16
2018-11-12T00:18:01.083Z,15
2018-11-12T00:19:01.114Z,14
2018-11-12T00:21:01.213Z,13
2018-11-12T00:22:01.189Z,12
2018-11-12T00:23:01.086Z,13
2018-11-12T00:24:01.130Z,14
2018-11-12T00:25:01.092Z,13
2018-11-12T00:26:01.088Z,14
2018-11-12T00:27:01.086Z,15
2018-11-12T00:28:01.088Z,16
2018-11-12T00:29:01.087Z,17
2018-11-12T00:30:06.089Z,18
2018-11-12T00:31:01.160Z,19
2018-11-12T00:32:01.090Z,18
2018-11-12T00:33:01.090Z,17
2018-11-12T00:34:01.089Z,16
2018-11-12T00:35:06.093Z,15
2018-11-12T00:37:01.086Z,16
2018-11-12T00:38:01.088Z,17
2018-11-12T00:42:01.151Z,16
2018-11-12T00:43:01.087Z,15
2018-11-12T00:45:01.091Z,15
2018-11-12T00:46:01.094Z,16
2018-11-12T00:47:01.087Z,15
2018-11-12T00:50:01.213Z,16
2018-11-12T00:51:01.091Z,14
2018-11-12T00:52:01.087Z,15
2018-11-12T00:55:06.085Z,14
2018-11-12T00:56:01.087Z,16
2018-11-12T00:57:01.085Z,15
2018-11-12T00:59:01.098Z,14
2018-11-12T01:00:01.086Z,15
2018-11-12T01:01:01.191Z,14
2018-11-12T01:08:01.090Z,15
2018-11-12T01:10:01.218Z,16
2018-11-12T01:11:01.125Z,18
2018-11-12T01:12:02.244Z,17
2018-11-12T01:13:01.092Z,16
2018-11-12T01:15:01.089Z,15
2018-11-12T01:17:01.123Z,17
2018-11-12T01:18:01.087Z,18
2018-11-12T01:20:01.088Z,19
2018-11-12T01:21:01.121Z,17
2018-11-12T01:22:01.090Z,15
2018-11-12T01:23:01.093Z,16
2018-11-12T01:25:02.110Z,17
2018-11-12T01:27:01.125Z,18
2018-11-12T01:29:01.091Z,20
2018-11-12T01:30:01.090Z,17
2018-11-12T01:31:01.124Z,18
2018-11-12T01:34:01.090Z,17
2018-11-12T01:36:01.117Z,18
2018-11-12T01:38:01.088Z,17
2018-11-12T01:39:01.089Z,18
2018-11-12T01:42:01.186Z,17
2018-11-12T01:44:01.510Z,16
2018-11-12T01:45:01.092Z,16
2018-11-12T01:46:01.124Z,15
2018-11-12T01:48:01.093Z,13
2018-11-12T01:49:01.093Z,14
2018-11-12T01:50:01.094Z,15
2018-11-12T01:53:01.091Z,17
2018-11-12T01:54:01.090Z,16
2018-11-12T01:56:01.128Z,15
2018-11-12T02:00:01.220Z,15
2018-11-12T02:01:01.136Z,17
2018-11-12T02:03:01.091Z,16
2018-11-12T02:04:01.092Z,17
2018-11-12T02:05:01.284Z,16
2018-11-12T02:06:01.123Z,15
2018-11-12T02:07:01.095Z,17
2018-11-12T02:08:01.098Z,19
2018-11-12T02:10:01.165Z,21
2018-11-12T02:12:01.130Z,19
2018-11-12T02:13:01.095Z,18
2018-11-12T02:14:01.095Z,17
2018-11-12T02:15:01.102Z,16
2018-11-12T02:17:01.126Z,15
2018-11-12T02:18:01.213Z,14
2018-11-12T02:21:01.148Z,16
2018-11-12T02:24:01.102Z,15
2018-11-12T02:25:01.230Z,16
2018-11-12T02:26:01.130Z,14
2018-11-12T02:27:01.097Z,15
2018-11-12T02:29:01.099Z,16
2018-11-12T02:30:01.105Z,14
2018-11-12T02:31:01.137Z,15
2018-11-12T02:32:01.102Z,16
2018-11-12T02:34:01.083Z,17
2018-11-12T02:35:01.081Z,19
2018-11-12T02:36:01.126Z,21
2018-11-12T02:37:01.081Z,19
2018-11-12T02:38:01.090Z,18
2018-11-12T02:39:01.083Z,17
2018-11-12T02:40:01.083Z,16
2018-11-12T02:41:01.131Z,17
2018-11-12T02:42:01.083Z,18
2018-11-12T02:43:01.083Z,16
2018-11-12T02:45:01.088Z,17
2018-11-12T02:47:01.113Z,16
2018-11-12T02:48:01.086Z,17
2018-11-12T02:49:01.085Z,16
2018-11-12T02:50:01.090Z,17
2018-11-12T02:51:01.092Z,16
2018-11-12T02:53:01.121Z,15
2018-11-12T02:54:01.091Z,17
2018-11-12T02:55:02.694Z,16
2018-11-12T02:56:01.091Z,19
2018-11-12T02:57:01.086Z,20
2018-11-12T02:59:01.145Z,21
2018-11-12T03:00:01.097Z,19
2018-11-12T03:01:01.089Z,15
2018-11-12T03:02:01.088Z,14
2018-11-12T03:04:01.308Z,12
2018-11-12T03:05:01.091Z,13
2018-11-12T03:06:01.097Z,16
2018-11-12T03:09:01.119Z,18
2018-11-12T03:10:01.089Z,17
2018-11-12T03:11:01.094Z,16
2018-11-12T03:13:01.088Z,15
2018-11-12T03:15:01.127Z,16
2018-11-12T03:16:01.089Z,15
2018-11-12T03:17:01.086Z,17
2018-11-12T03:19:01.127Z,16
2018-11-12T03:21:01.162Z,17
2018-11-12T03:23:01.090Z,18
2018-11-12T03:25:01.189Z,17
2018-11-12T03:26:01.092Z,16
2018-11-12T03:27:01.094Z,15
2018-11-12T03:29:01.098Z,14
2018-11-12T03:30:01.133Z,15
2018-11-12T03:31:01.102Z,17
2018-11-12T03:34:02.037Z,18
2018-11-12T03:36:01.096Z,15
2018-11-12T03:38:01.102Z,13
2018-11-12T03:40:01.136Z,14
2018-11-12T03:41:01.098Z,15
2018-11-12T03:42:01.098Z,17
2018-11-12T03:43:01.097Z,19
2018-11-12T03:44:01.106Z,20
2018-11-12T03:45:01.132Z,22
2018-11-12T03:46:01.098Z,20
2018-11-12T03:47:01.098Z,19
2018-11-12T03:48:01.131Z,17
2018-11-12T03:49:01.113Z,18
2018-11-12T03:50:01.099Z,16
2018-11-12T03:51:01.098Z,17
2018-11-12T03:52:01.099Z,16
2018-11-12T03:53:01.134Z,17
2018-11-12T03:54:01.098Z,16
2018-11-12T03:55:01.227Z,15
2018-11-12T03:57:01.100Z,16
2018-11-12T03:58:01.129Z,15
2018-11-12T04:00:01.186Z,15
2018-11-12T04:01:01.115Z,16
2018-11-12T04:02:01.102Z,15
2018-11-12T04:03:01.128Z,17
2018-11-12T04:05:01.100Z,16
2018-11-12T04:06:01.105Z,15
2018-11-12T04:07:01.099Z,16
2018-11-12T04:08:02.360Z,14
2018-11-12T04:09:01.099Z,16
2018-11-12T04:11:01.165Z,17
2018-11-12T04:13:01.112Z,18
2018-11-12T04:14:01.132Z,17
2018-11-12T04:15:01.102Z,16
2018-11-12T04:16:01.109Z,15
2018-11-12T04:17:01.111Z,13
2018-11-12T04:18:01.103Z,14
2018-11-12T04:21:01.304Z,16
2018-11-12T04:23:01.084Z,18
2018-11-12T04:24:01.086Z,17
2018-11-12T04:25:01.092Z,18
2018-11-12T04:26:01.273Z,16
2018-11-12T04:27:01.083Z,18
2018-11-12T04:28:01.084Z,17
2018-11-12T04:29:01.091Z,16
2018-11-12T04:30:01.086Z,16
2018-11-12T04:31:01.089Z,17
2018-11-12T04:32:01.084Z,15
2018-11-12T04:35:01.086Z,14
2018-11-12T04:36:01.211Z,15
2018-11-12T04:37:01.084Z,16
2018-11-12T04:38:01.162Z,17
2018-11-12T04:39:01.082Z,18
2018-11-12T04:41:01.147Z,17
2018-11-12T04:42:01.084Z,16
2018-11-12T04:43:02.469Z,17
2018-11-12T04:44:01.085Z,14
2018-11-12T04:45:01.081Z,15
2018-11-12T04:46:01.085Z,16
2018-11-12T04:47:01.080Z,19
2018-11-12T04:48:01.110Z,18
2018-11-12T04:51:01.210Z,19
2018-11-12T04:52:01.088Z,15
2018-11-12T04:53:01.080Z,17
2018-11-12T04:54:01.079Z,18
2018-11-12T04:55:01.111Z,17
2018-11-12T04:56:01.084Z,16
2018-11-12T04:57:01.093Z,17
2018-11-12T04:59:01.079Z,18
2018-11-12T05:00:01.115Z,16
2018-11-12T05:02:01.138Z,17
2018-11-12T05:04:01.079Z,14
2018-11-12T05:05:01.085Z,17
2018-11-12T05:07:01.079Z,16
2018-11-12T05:09:01.077Z,19
2018-11-12T05:11:01.143Z,21
2018-11-12T05:14:01.077Z,19
2018-11-12T05:15:01.079Z,19
2018-11-12T05:17:01.079Z,22
2018-11-12T05:18:01.147Z,20
2018-11-12T05:20:01.142Z,19
2018-11-12T05:21:01.078Z,18
2018-11-12T05:22:01.236Z,15
2018-11-12T05:23:01.082Z,16
2018-11-12T05:24:01.081Z,17
2018-11-12T05:25:01.080Z,16
2018-11-12T05:27:01.081Z,15
2018-11-12T05:28:01.081Z,16
2018-11-12T05:29:01.175Z,15
2018-11-12T05:30:01.080Z,16
2018-11-12T05:31:01.081Z,17
2018-11-12T05:33:01.148Z,15
2018-11-12T05:34:01.086Z,16
2018-11-12T05:36:01.081Z,15
2018-11-12T05:37:01.079Z,18
2018-11-12T05:38:01.103Z,17
2018-11-12T05:42:01.082Z,15
2018-11-12T05:43:01.082Z,17
2018-11-12T05:45:01.207Z,16
2018-11-12T05:47:01.085Z,17
2018-11-12T05:48:01.085Z,16
2018-11-12T05:49:01.081Z,15
2018-11-12T05:51:01.152Z,16
2018-11-12T05:52:01.083Z,15
2018-11-12T05:53:01.085Z,14
2018-11-12T05:55:01.084Z,16
2018-11-12T05:58:01.081Z,15
2018-11-12T05:59:01.104Z,14
2018-11-12T06:00:01.118Z,15
2018-11-12T06:06:01.085Z,13
2018-11-12T06:07:01.089Z,15
2018-11-12T06:08:01.080Z,18
2018-11-12T06:09:01.082Z,19
2018-11-12T06:10:01.083Z,21
2018-11-12T06:12:01.082Z,20
2018-11-12T06:13:01.082Z,19
2018-11-12T06:15:01.083Z,16
2018-11-12T06:16:01.087Z,17
2018-11-12T06:17:01.092Z,18
2018-11-12T06:18:01.084Z,19
2018-11-12T06:19:01.084Z,18
2018-11-12T06:20:01.084Z,19
2018-11-12T06:21:01.088Z,18
2018-11-12T06:22:01.085Z,15
2018-11-12T06:24:01.082Z,16
2018-11-12T06:25:01.084Z,18
2018-11-12T06:26:01.092Z,19
2018-11-12T06:27:01.082Z,20
2018-11-12T06:29:01.081Z,22
2018-11-12T06:30:01.088Z,21
2018-11-12T06:31:01.116Z,20
2018-11-12T06:32:01.083Z,19
2018-11-12T06:33:01.084Z,20
2018-11-12T06:34:01.083Z,18
2018-11-12T06:35:01.089Z,17
2018-11-12T06:36:01.084Z,18
2018-11-12T06:37:01.087Z,19
2018-11-12T06:39:01.116Z,18
2018-11-12T06:40:01.094Z,17
2018-11-12T06:42:01.090Z,15
2018-11-12T06:45:01.091Z,14
2018-11-12T06:46:01.091Z,12
2018-11-12T06:47:01.087Z,13
2018-11-12T06:49:01.088Z,14
2018-11-12T06:51:01.155Z,15
2018-11-12T06:53:01.249Z,14
2018-11-12T06:55:01.132Z,15
2018-11-12T06:56:01.093Z,17
2018-11-12T06:59:01.095Z,15
2018-11-12T07:00:01.125Z,17
2018-11-12T07:01:01.254Z,15
2018-11-12T07:04:01.095Z,17
2018-11-12T07:05:01.138Z,16
2018-11-12T07:06:01.096Z,19
2018-11-12T07:08:01.101Z,20
2018-11-12T07:11:01.162Z,17
2018-11-12T07:12:01.101Z,16
2018-11-12T07:13:01.162Z,17
2018-11-12T07:15:06.124Z,17
2018-11-12T07:16:01.175Z,18
2018-11-12T07:17:01.101Z,19
2018-11-12T07:20:01.195Z,20
2018-11-12T07:24:02.136Z,18
2018-11-12T07:27:01.098Z,16
2018-11-12T07:29:01.104Z,18
2018-11-12T07:30:01.101Z,18
2018-11-12T07:31:01.190Z,17
2018-11-12T07:32:01.099Z,18
2018-11-12T07:35:01.084Z,16
2018-11-12T07:36:01.084Z,14
2018-11-12T07:38:01.094Z,13
2018-11-12T07:40:01.148Z,14
2018-11-12T07:41:02.200Z,16
2018-11-12T07:42:01.144Z,15
2018-11-12T07:44:01.089Z,18
2018-11-12T07:45:01.087Z,16
2018-11-12T07:47:01.119Z,17
2018-11-12T07:48:01.086Z,18
2018-11-12T07:49:01.086Z,16
2018-11-12T07:50:01.087Z,18
2018-11-12T07:51:01.086Z,19
2018-11-12T07:53:01.092Z,18
2018-11-12T07:54:02.164Z,19
2018-11-12T07:55:01.094Z,18
2018-11-12T07:57:01.120Z,17
2018-11-12T07:58:01.086Z,18
2018-11-12T07:59:01.115Z,16
2018-11-12T08:00:01.094Z,17
2018-11-12T08:01:01.086Z,15
2018-11-12T08:02:01.122Z,17
2018-11-12T08:04:01.088Z,16
2018-11-12T08:05:01.088Z,17
2018-11-12T08:06:01.091Z,18
2018-11-12T08:07:01.120Z,15
2018-11-12T08:08:01.092Z,16
2018-11-12T08:09:01.144Z,18
2018-11-12T08:10:01.097Z,16
2018-11-12T08:13:01.089Z,15
2018-11-12T08:14:01.093Z,14
2018-11-12T08:15:01.090Z,16
2018-11-12T08:19:01.090Z,15
2018-11-12T08:22:01.185Z,14
2018-11-12T08:23:01.094Z,15
2018-11-12T08:24:01.204Z,17
2018-11-12T08:25:01.094Z,15
2018-11-12T08:26:01.090Z,17
2018-11-12T08:27:01.121Z,19
2018-11-12T08:28:01.098Z,18
2018-11-12T08:29:01.096Z,17
2018-11-12T08:30:01.133Z,17
2018-11-12T08:31:01.091Z,16
2018-11-12T08:32:01.131Z,15
2018-11-12T08:33:01.175Z,17
2018-11-12T08:35:01.092Z,18
2018-11-12T08:38:01.089Z,15
2018-11-12T08:39:01.160Z,16
2018-11-12T08:42:01.131Z,17
2018-11-12T08:44:01.089Z,16
2018-11-12T08:45:01.091Z,18
2018-11-12T08:46:01.102Z,17
2018-11-12T08:47:01.088Z,16
2018-11-12T08:48:01.092Z,17
2018-11-12T08:50:01.284Z,15
2018-11-12T08:51:01.090Z,16
2018-11-12T08:53:01.228Z,15
2018-11-12T08:54:01.089Z,16
2018-11-12T08:55:01.189Z,15
2018-11-12T08:56:01.095Z,14
2018-11-12T08:57:01.091Z,15
2018-11-12T08:58:01.094Z,16
2018-11-12T09:00:01.156Z,19
2018-11-12T09:01:01.096Z,21
2018-11-12T09:02:01.095Z,20
2018-11-12T09:05:01.232Z,19
2018-11-12T09:06:01.105Z,18
2018-11-12T09:07:01.141Z,17
2018-11-12T09:09:01.089Z,18
2018-11-12T09:10:01.237Z,17
2018-11-12T09:11:01.116Z,18
2018-11-12T09:14:01.089Z,17
2018-11-12T09:15:01.095Z,17
2018-11-12T09:16:01.092Z,16
2018-11-12T09:17:01.091Z,18
2018-11-12T09:18:01.233Z,16
2018-11-12T09:21:01.158Z,15
2018-11-12T09:22:01.090Z,14
2018-11-12T09:26:01.088Z,16
2018-11-12T09:28:01.119Z,17
2018-11-12T09:29:01.089Z,19
2018-11-12T09:30:01.092Z,17
2018-11-12T09:31:02.523Z,15
2018-11-12T09:34:01.087Z,13
2018-11-12T09:35:01.089Z,14
2018-11-12T09:36:01.089Z,16
2018-11-12T09:37:01.093Z,17
2018-11-12T09:38:01.134Z,16
2018-11-12T09:41:01.215Z,18
2018-11-12T09:43:01.130Z,20
2018-11-12T09:44:01.088Z,21
2018-11-12T09:45:01.088Z,19
2018-11-12T09:47:01.092Z,20
2018-11-12T09:48:01.147Z,19
2018-11-12T09:50:01.158Z,22
2018-11-12T09:51:01.090Z,23
2018-11-12T09:52:01.092Z,22
2018-11-12T09:53:01.123Z,21
2018-11-12T09:55:01.088Z,19
2018-11-12T09:56:01.089Z,17
2018-11-12T09:59:01.088Z,16
2018-11-12T10:00:01.362Z,17
2018-11-12T10:02:01.784Z,14
2018-11-12T10:06:02.153Z,15
2018-11-12T10:07:02.817Z,17
2018-11-12T10:09:02.918Z,18
2018-11-12T10:10:03.815Z,19
2018-11-12T10:12:02.969Z,18
2018-11-12T10:13:02.244Z,17
2018-11-12T10:14:02.987Z,18
2018-11-12T10:15:04.094Z,17
2018-11-12T10:17:03.651Z,16
2018-11-12T10:18:03.793Z,18
2018-11-12T10:19:01.130Z,15
2018-11-12T10:22:01.156Z,18
2018-11-12T10:23:01.103Z,16
2018-11-12T10:24:01.091Z,18
2018-11-12T10:25:01.094Z,17
2018-11-12T10:26:01.095Z,18
2018-11-12T10:27:01.092Z,17
2018-11-12T10:28:01.094Z,19
2018-11-12T10:29:01.131Z,18
2018-11-12T10:30:01.200Z,18
2018-11-12T10:31:01.093Z,19
2018-11-12T10:33:01.094Z,18
2018-11-12T10:34:01.159Z,19
2018-11-12T10:35:01.094Z,21
2018-11-12T10:36:01.097Z,19
2018-11-12T10:37:01.101Z,18
2018-11-12T10:39:01.135Z,15
2018-11-12T10:41:01.106Z,14
2018-11-12T10:43:01.102Z,16
2018-11-12T10:45:01.133Z,17
2018-11-12T10:46:01.100Z,18
2018-11-12T10:47:01.102Z,19
2018-11-12T10:48:01.139Z,16
2018-11-12T10:49:01.101Z,18
2018-11-12T10:50:01.146Z,17
2018-11-12T10:52:01.103Z,19
2018-11-12T10:53:01.105Z,20
2018-11-12T10:54:01.335Z,18
2018-11-12T10:56:01.394Z,19
2018-11-12T10:57:01.101Z,16
2018-11-12T11:00:01.167Z,16
2018-11-12T11:01:01.101Z,15
2018-11-12T11:09:01.099Z,16
2018-11-12T11:15:01.165Z,15
2018-11-12T11:16:01.099Z,16
2018-11-12T11:18:01.139Z,17
2018-11-12T11:20:01.232Z,19
2018-11-12T11:23:01.139Z,17
2018-11-12T11:25:01.099Z,15
2018-11-12T11:27:01.095Z,14
2018-11-12T11:28:01.135Z,13
2018-11-12T11:29:01.100Z,15
2018-11-12T11:30:01.098Z,15
2018-11-12T11:32:01.105Z,18
2018-11-12T11:33:01.134Z,21
2018-11-12T11:34:01.096Z,19
2018-11-12T11:35:01.098Z,20
2018-11-12T11:36:01.096Z,18
2018-11-12T11:39:01.100Z,19
2018-11-12T11:40:01.119Z,18
2018-11-12T11:42:01.094Z,17
2018-11-12T11:43:01.142Z,16
2018-11-12T11:44:01.174Z,15
2018-11-12T11:45:01.099Z,16
2018-11-12T11:46:01.131Z,17
2018-11-12T11:47:01.100Z,16
2018-11-12T11:48:01.273Z,17
2018-11-12T11:53:01.096Z,16
2018-11-12T11:59:01.099Z,17
2018-11-12T12:00:01.148Z,17
2018-11-12T12:01:01.105Z,18
2018-11-12T12:02:01.099Z,17
2018-11-12T12:03:01.172Z,18
2018-11-12T12:04:01.099Z,16
2018-11-12T12:05:01.139Z,14
2018-11-12T12:07:01.102Z,13
2018-11-12T12:08:01.100Z,12
2018-11-12T12:09:01.119Z,13
2018-11-12T12:10:01.154Z,15
2018-11-12T12:11:01.099Z,16
2018-11-12T12:14:01.083Z,19
2018-11-12T12:15:01.085Z,17
2018-11-12T12:16:01.085Z,16
2018-11-12T12:17:01.088Z,17
2018-11-12T12:19:01.086Z,15
2018-11-12T12:20:01.085Z,16
2018-11-12T12:22:01.086Z,15
2018-11-12T12:23:01.092Z,16
2018-11-12T12:24:01.087Z,17
2018-11-12T12:26:01.145Z,19
2018-11-12T12:27:01.088Z,20
2018-11-12T12:28:01.115Z,21
2018-11-12T12:29:01.091Z,20
2018-11-12T12:30:01.090Z,20
2018-11-12T12:31:01.091Z,19
2018-11-12T12:32:01.090Z,17
2018-11-12T12:35:01.089Z,20
2018-11-12T12:36:01.108Z,19
2018-11-12T12:40:02.121Z,18
2018-11-12T12:41:01.089Z,20
2018-11-12T12:42:01.091Z,19
2018-11-12T12:43:01.091Z,17
2018-11-12T12:45:01.251Z,17
2018-11-12T12:46:01.145Z,15
2018-11-12T12:47:01.094Z,14
2018-11-12T12:48:01.090Z,15
2018-11-12T12:50:01.160Z,14
2018-11-12T12:51:01.090Z,15
2018-11-12T12:53:01.090Z,17
2018-11-12T12:56:01.147Z,16
2018-11-12T12:57:01.156Z,17
2018-11-12T12:58:01.096Z,16
2018-11-12T12:59:01.089Z,15
2018-11-12T13:00:01.212Z,15
2018-11-12T13:01:01.090Z,16
2018-11-12T13:03:01.090Z,17
2018-11-12T13:05:01.231Z,18
2018-11-12T13:08:01.091Z,19
2018-11-12T13:09:01.087Z,20
2018-11-12T13:10:01.126Z,19
2018-11-12T13:11:01.087Z,20
2018-11-12T13:13:01.087Z,18
2018-11-12T13:14:01.220Z,20
2018-11-12T13:15:01.309Z,21
2018-11-12T13:16:01.094Z,19
2018-11-12T13:17:01.090Z,17
2018-11-12T13:18:01.089Z,18
2018-11-12T13:19:01.088Z,17
2018-11-12T13:20:01.090Z,15
2018-11-12T13:21:01.145Z,17
2018-11-12T13:22:01.094Z,19
2018-11-12T13:23:01.098Z,18
2018-11-12T13:24:01.092Z,17
2018-11-12T13:26:01.106Z,16
2018-11-12T13:29:01.090Z,17
2018-11-12T13:30:01.238Z,17
2018-11-12T13:31:01.092Z,18
2018-11-12T13:32:01.098Z,17
2018-11-12T13:33:01.101Z,18
2018-11-12T13:34:01.228Z,19
2018-11-12T13:36:01.094Z,18
2018-11-12T13:37:01.098Z,19
2018-11-12T13:38:01.093Z,18
2018-11-12T13:39:01.099Z,16
2018-11-12T13:40:01.143Z,18
2018-11-12T13:43:01.100Z,17
2018-11-12T13:44:01.098Z,19
2018-11-12T13:45:01.137Z,17
2018-11-12T13:46:01.101Z,16
2018-11-12T13:47:01.102Z,15
2018-11-12T13:48:01.119Z,17
2018-11-12T13:49:01.100Z,16
2018-11-12T13:50:01.141Z,17
2018-11-12T13:51:01.101Z,16
2018-11-12T13:53:01.131Z,19
2018-11-12T13:54:01.084Z,20
2018-11-12T13:55:01.317Z,18
2018-11-12T13:56:01.086Z,19
2018-11-12T13:58:01.085Z,17
2018-11-12T13:59:01.091Z,15
2018-11-12T14:00:01.088Z,15
2018-11-12T14:01:01.116Z,12
2018-11-12T14:02:01.089Z,14
2018-11-12T14:03:01.089Z,15
2018-11-12T14:04:01.093Z,16
2018-11-12T14:05:01.089Z,17
2018-11-12T14:06:01.091Z,21
2018-11-12T14:07:01.089Z,20
2018-11-12T14:09:01.088Z,21
2018-11-12T14:10:01.091Z,19
2018-11-12T14:11:01.097Z,17
2018-11-12T14:14:01.172Z,16
2018-11-12T14:15:01.090Z,15
2018-11-12T14:16:01.094Z,16
2018-11-12T14:17:01.090Z,15
2018-11-12T14:18:01.090Z,16
2018-11-12T14:20:01.308Z,15
2018-11-12T14:21:01.194Z,14
2018-11-12T14:22:01.092Z,16
2018-11-12T14:23:01.089Z,15
2018-11-12T14:24:01.087Z,16
2018-11-12T14:25:01.806Z,18
2018-11-12T14:26:01.093Z,16
2018-11-12T14:29:01.089Z,15
2018-11-12T14:30:01.090Z,16
2018-11-12T14:31:01.123Z,17
2018-11-12T14:35:01.089Z,15
2018-11-12T14:36:01.163Z,16
2018-11-12T14:37:01.108Z,17
2018-11-12T14:38:01.306Z,18
2018-11-12T14:39:01.088Z,20
2018-11-12T14:40:01.089Z,19
2018-11-12T14:41:01.092Z,20
2018-11-12T14:42:01.094Z,21
2018-11-12T14:43:01.091Z,19
2018-11-12T14:44:01.090Z,17
2018-11-12T14:45:01.114Z,19
2018-11-12T14:47:01.094Z,18
2018-11-12T14:48:01.090Z,17
2018-11-12T14:49:01.091Z,18
2018-11-12T14:50:01.255Z,15
2018-11-12T14:51:01.184Z,14
2018-11-12T14:53:01.095Z,15
2018-11-12T14:54:01.093Z,14
2018-11-12T14:58:01.097Z,15
2018-11-12T14:59:01.096Z,16
2018-11-12T15:00:01.093Z,18
2018-11-12T15:01:01.095Z,20
2018-11-12T15:04:01.091Z,18
2018-11-12T15:05:01.090Z,19
2018-11-12T15:06:01.091Z,16
2018-11-12T15:08:01.089Z,15
2018-11-12T15:11:01.095Z,17
2018-11-12T15:13:01.093Z,16
2018-11-12T15:14:01.099Z,17
2018-11-12T15:15:01.171Z,18
2018-11-12T15:16:01.093Z,17
2018-11-12T15:17:01.091Z,18
2018-11-12T15:18:01.091Z,19
2018-11-12T15:19:01.094Z,18
2018-11-12T15:20:01.090Z,17
2018-11-12T15:21:01.201Z,19
2018-11-12T15:22:01.095Z,18
2018-11-12T15:23:01.092Z,19
2018-11-12T15:24:01.096Z,21
2018-11-12T15:25:01.103Z,20
2018-11-12T15:26:01.093Z,18
2018-11-12T15:27:01.092Z,19
2018-11-12T15:28:01.908Z,17
2018-11-12T15:29:01.095Z,16
2018-11-12T15:30:01.100Z,15
2018-11-12T15:31:01.133Z,16
2018-11-12T15:33:01.094Z,18
2018-11-12T15:34:01.094Z,17
2018-11-12T15:35:01.096Z,19
2018-11-12T15:36:01.131Z,18
2018-11-12T15:38:01.095Z,16
2018-11-12T15:39:01.092Z,17
2018-11-12T15:41:01.264Z,18
2018-11-12T15:45:01.095Z,16
2018-11-12T15:47:01.100Z,17
2018-11-12T15:49:01.093Z,19
2018-11-12T15:50:01.093Z,20
2018-11-12T15:58:01.094Z,18
2018-11-12T15:59:01.090Z,17
2018-11-12T16:00:01.091Z,16
2018-11-12T16:03:01.093Z,17
2018-11-12T16:04:01.088Z,18
2018-11-12T16:05:01.090Z,16
2018-11-12T16:06:01.357Z,17
2018-11-12T16:08:01.088Z,18
2018-11-12T16:09:01.088Z,19
2018-11-12T16:10:01.093Z,20
2018-11-12T16:11:01.092Z,21
2018-11-12T16:12:01.224Z,20
2018-11-12T16:13:01.088Z,18
2018-11-12T16:14:01.089Z,19
2018-11-12T16:15:01.089Z,17
2018-11-12T16:16:01.094Z,15
2018-11-12T16:17:01.119Z,14
2018-11-12T16:19:01.140Z,13
2018-11-12T16:20:01.089Z,14
2018-11-12T16:22:01.285Z,16
2018-11-12T16:23:01.088Z,15
2018-11-12T16:24:01.090Z,16
2018-11-12T16:25:01.093Z,15
2018-11-12T16:26:01.095Z,16
2018-11-12T16:27:01.131Z,17
2018-11-12T16:28:01.089Z,18
2018-11-12T16:29:01.092Z,19
2018-11-12T16:30:01.092Z,20
2018-11-12T16:31:01.095Z,19
2018-11-12T16:32:01.124Z,18
2018-11-12T16:33:01.092Z,17
2018-11-12T16:34:01.093Z,15
2018-11-12T16:35:01.096Z,16
2018-11-12T16:37:01.966Z,15
2018-11-12T16:38:01.099Z,16
2018-11-12T16:39:01.097Z,17
2018-11-12T16:40:01.121Z,16
2018-11-12T16:42:01.131Z,18
2018-11-12T16:44:01.101Z,20
2018-11-12T16:45:01.092Z,20
2018-11-12T16:46:01.098Z,22
2018-11-12T16:49:01.091Z,19
2018-11-12T16:51:01.161Z,18
2018-11-12T16:52:01.137Z,19
2018-11-12T16:53:01.097Z,18
2018-11-12T16:54:02.073Z,19
2018-11-12T16:55:01.094Z,16
2018-11-12T16:56:01.094Z,15
2018-11-12T16:57:01.091Z,14
2018-11-12T16:58:01.091Z,15
2018-11-12T16:59:01.091Z,14
2018-11-12T17:00:01.096Z,16
2018-11-12T17:03:01.092Z,17
2018-11-12T17:04:01.091Z,18
2018-11-12T17:08:01.093Z,19
2018-11-12T17:09:01.092Z,18
2018-11-12T17:10:01.099Z,19
2018-11-12T17:15:01.117Z,19
2018-11-12T17:19:01.170Z,18
2018-11-12T17:21:01.163Z,17
2018-11-12T17:22:01.145Z,16
2018-11-12T17:24:01.094Z,15
2018-11-12T17:25:01.226Z,16
2018-11-12T17:26:01.094Z,15
2018-11-12T17:27:01.126Z,14
2018-11-12T17:28:01.150Z,13
2018-11-12T17:29:01.094Z,16
2018-11-12T17:30:01.098Z,16
2018-11-12T17:31:01.156Z,18
2018-11-12T17:33:01.127Z,19
2018-11-12T17:34:01.098Z,17
2018-11-12T17:35:01.099Z,16
2018-11-12T17:36:01.164Z,17
2018-11-12T17:37:01.096Z,18
2018-11-12T17:39:01.137Z,19
2018-11-12T17:42:01.164Z,18
2018-11-12T17:44:01.182Z,16
2018-11-12T17:45:01.101Z,15
2018-11-12T17:47:01.130Z,16
2018-11-12T17:50:01.169Z,18
2018-11-12T17:53:01.139Z,20
2018-11-12T17:56:01.122Z,21
2018-11-12T17:58:01.131Z,20
2018-11-12T17:59:01.103Z,21
2018-11-12T18:00:01.099Z,20
2018-11-12T18:01:01.131Z,18
2018-11-12T18:03:01.098Z,16
2018-11-12T18:04:01.131Z,15
2018-11-12T18:05:01.370Z,16
2018-11-12T18:06:01.099Z,18
2018-11-12T18:08:01.122Z,17
2018-11-12T18:09:01.131Z,18
2018-11-12T18:12:01.136Z,17
2018-11-12T18:14:01.098Z,16
2018-11-12T18:15:01.268Z,14
2018-11-12T18:16:01.130Z,12
2018-11-12T18:17:01.099Z,11
2018-11-12T18:18:01.101Z,13
2018-11-12T18:19:01.098Z,15
2018-11-12T18:20:01.134Z,17
2018-11-12T18:21:01.102Z,18
2018-11-12T18:23:01.149Z,17
2018-11-12T18:25:01.127Z,14
2018-11-12T18:26:01.099Z,15
2018-11-12T18:28:01.107Z,14
2018-11-12T18:30:01.323Z,15
2018-11-12T18:31:01.279Z,16
2018-11-12T18:32:01.230Z,17
2018-11-12T18:33:01.166Z,19
2018-11-12T18:35:01.115Z,17
2018-11-12T18:37:01.084Z,15
2018-11-12T18:38:01.170Z,14
2018-11-12T18:39:01.095Z,13
2018-11-12T18:40:01.122Z,14
2018-11-12T18:42:01.084Z,15
2018-11-12T18:43:01.090Z,14
2018-11-12T18:44:01.092Z,15
2018-11-12T18:45:01.083Z,16
2018-11-12T18:46:01.115Z,18
2018-11-12T18:48:01.084Z,19
2018-11-12T18:49:01.086Z,18
2018-11-12T18:50:01.089Z,16
2018-11-12T18:51:01.116Z,17
2018-11-12T18:52:01.904Z,18
2018-11-12T18:53:01.088Z,19
2018-11-12T18:55:01.090Z,20
2018-11-12T18:56:01.118Z,18
2018-11-12T18:57:01.083Z,16
2018-11-12T18:58:01.152Z,15
2018-11-12T18:59:01.085Z,13
2018-11-12T19:00:01.090Z,14
2018-11-12T19:01:01.124Z,13
2018-11-12T19:02:01.083Z,14
2018-11-12T19:04:01.146Z,16
2018-11-12T19:05:01.120Z,17
2018-11-12T19:06:01.115Z,16
2018-11-12T19:08:01.084Z,18
2018-11-12T19:10:02.467Z,17
2018-11-12T19:11:01.199Z,18
2018-11-12T19:12:01.092Z,19
2018-11-12T19:13:01.093Z,16
2018-11-12T19:14:01.087Z,17
2018-11-12T19:15:01.092Z,17
2018-11-12T19:16:01.088Z,18
2018-11-12T19:18:01.268Z,19
2018-11-12T19:21:01.248Z,17
2018-11-12T19:26:01.089Z,18
2018-11-12T19:27:01.124Z,19
2018-11-12T19:29:01.090Z,18
2018-11-12T19:30:01.094Z,18
2018-11-12T19:31:01.092Z,16
2018-11-12T19:32:01.123Z,17
2018-11-12T19:34:01.089Z,16
2018-11-12T19:35:01.093Z,17
2018-11-12T19:36:01.093Z,18
2018-11-12T19:37:01.123Z,16
2018-11-12T19:39:01.094Z,17
2018-11-12T19:42:01.248Z,18
2018-11-12T19:43:01.096Z,17
2018-11-12T19:44:01.116Z,16
2018-11-12T19:45:01.092Z,17
2018-11-12T19:46:01.090Z,18
2018-11-12T19:47:01.126Z,17
2018-11-12T19:48:01.095Z,18
2018-11-12T19:50:01.092Z,17
2018-11-12T19:51:01.101Z,16
2018-11-12T19:53:01.093Z,14
2018-11-12T19:54:01.094Z,13
2018-11-12T19:57:01.131Z,12
2018-11-12T19:58:01.093Z,13
2018-11-12T19:59:01.109Z,16
2018-11-12T20:00:01.095Z,17
2018-11-12T20:01:01.090Z,19
2018-11-12T20:02:06.100Z,20
2018-11-12T20:04:01.099Z,18
2018-11-12T20:05:01.090Z,16
2018-11-12T20:06:01.125Z,15
2018-11-12T20:07:01.091Z,14
2018-11-12T20:08:01.091Z,15
2018-11-12T20:10:01.092Z,14
2018-11-12T20:11:01.131Z,16
2018-11-12T20:12:06.088Z,17
2018-11-12T20:13:01.090Z,18
2018-11-12T20:14:01.089Z,20
2018-11-12T20:15:01.091Z,20
2018-11-12T20:17:01.264Z,19
2018-11-12T20:18:01.094Z,18
2018-11-12T20:19:01.094Z,17
2018-11-12T20:20:01.089Z,16
2018-11-12T20:21:01.131Z,15
2018-11-12T20:23:01.094Z,16
2018-11-12T20:24:01.093Z,17
2018-11-12T20:25:01.225Z,16
2018-11-12T20:26:01.123Z,18
2018-11-12T20:27:01.094Z,20
2018-11-12T20:28:01.095Z,19
2018-11-12T20:29:01.092Z,18
2018-11-12T20:30:01.096Z,18
2018-11-12T20:31:01.125Z,17